sensor_id;sensor_type;location;lat;lon;timestamp;temperature;humidity
73875;HTU21D;62209;47.568;7.558;2023-06-14T00:03:11;14.58;73.18
73875;HTU21D;62209;47.568;7.558;2023-06-14T00:18:21;14.19;74.86
73875;HTU21D;62209;47.568;7.558;2023-06-14T00:33:33;13.70;76.68
73875;HTU21D;62209;47.568;7.558;2023-06-14T00:48:38;13.35;78.57
73875;HTU21D;62209;47.568;7.558;2023-06-14T01:03:45;13.06;79.72
73875;HTU21D;62209;47.568;7.558;2023-06-14T01:18:51;12.48;83.30
73875;HTU21D;62209;47.568;7.558;2023-06-14T01:33:59;12.43;83.43
73875;HTU21D;62209;47.568;7.558;2023-06-14T01:49:05;12.26;84.28
73875;HTU21D;62209;47.568;7.558;2023-06-14T02:04:11;11.96;85.67
73875;HTU21D;62209;47.568;7.558;2023-06-14T02:19:17;11.60;86.45
73875;HTU21D;62209;47.568;7.558;2023-06-14T02:34:23;11.34;86.58
73875;HTU21D;62209;47.568;7.558;2023-06-14T02:49:28;11.13;86.60
73875;HTU21D;62209;47.568;7.558;2023-06-14T03:04:34;10.83;88.03
73875;HTU21D;62209;47.568;7.558;2023-06-14T03:19:41;10.79;87.78
73875;HTU21D;62209;47.568;7.558;2023-06-14T03:34:47;10.59;89.73
73875;HTU21D;62209;47.568;7.558;2023-06-14T03:49:52;10.52;89.31
73875;HTU21D;62209;47.568;7.558;2023-06-14T04:04:58;10.45;89.28
73875;HTU21D;62209;47.568;7.558;2023-06-14T04:20:07;10.55;90.61
73875;HTU21D;62209;47.568;7.558;2023-06-14T04:35:14;11.15;89.60
73875;HTU21D;62209;47.568;7.558;2023-06-14T04:50:20;12.02;86.66
73875;HTU21D;62209;47.568;7.558;2023-06-14T05:05:27;13.58;84.42
73875;HTU21D;62209;47.568;7.558;2023-06-14T05:20:32;15.11;79.49
73875;HTU21D;62209;47.568;7.558;2023-06-14T05:35:40;16.50;71.86
73875;HTU21D;62209;47.568;7.558;2023-06-14T05:50:45;17.55;66.88
73875;HTU21D;62209;47.568;7.558;2023-06-14T06:05:51;18.94;63.49
73875;HTU21D;62209;47.568;7.558;2023-06-14T06:20:56;20.51;64.27
73875;HTU21D;62209;47.568;7.558;2023-06-14T06:36:02;21.52;60.85
73875;HTU21D;62209;47.568;7.558;2023-06-14T06:51:08;22.34;56.17
73875;HTU21D;62209;47.568;7.558;2023-06-14T07:06:14;23.26;56.32
73875;HTU21D;62209;47.568;7.558;2023-06-14T07:21:21;24.04;53.31
73875;HTU21D;62209;47.568;7.558;2023-06-14T07:36:28;24.62;52.81
73875;HTU21D;62209;47.568;7.558;2023-06-14T07:51:34;25.48;51.11
73875;HTU21D;62209;47.568;7.558;2023-06-14T08:06:40;24.66;49.84
73875;HTU21D;62209;47.568;7.558;2023-06-14T08:21:49;24.77;51.12
73875;HTU21D;62209;47.568;7.558;2023-06-14T08:36:55;25.89;48.51
73875;HTU21D;62209;47.568;7.558;2023-06-14T08:52:00;27.11;48.52
73875;HTU21D;62209;47.568;7.558;2023-06-14T09:07:07;27.41;47.22
73875;HTU21D;62209;47.568;7.558;2023-06-14T09:22:13;27.63;47.89
73875;HTU21D;62209;47.568;7.558;2023-06-14T09:37:30;27.02;48.21
73875;HTU21D;62209;47.568;7.558;2023-06-14T09:52:36;28.43;44.57
73875;HTU21D;62209;47.568;7.558;2023-06-14T10:07:44;28.57;44.22
73875;HTU21D;62209;47.568;7.558;2023-06-14T10:22:58;29.38;42.91
73875;HTU21D;62209;47.568;7.558;2023-06-14T10:38:08;29.32;42.87
73875;HTU21D;62209;47.568;7.558;2023-06-14T10:53:23;28.35;43.36
73875;HTU21D;62209;47.568;7.558;2023-06-14T11:08:36;29.81;41.65
73875;HTU21D;62209;47.568;7.558;2023-06-14T11:23:59;31.26;39.62
73875;HTU21D;62209;47.568;7.558;2023-06-14T11:39:05;30.15;39.72
73875;HTU21D;62209;47.568;7.558;2023-06-14T11:54:12;31.25;40.35
73875;HTU21D;62209;47.568;7.558;2023-06-14T12:09:18;31.93;39.49
73875;HTU21D;62209;47.568;7.558;2023-06-14T12:24:23;31.65;39.80
73875;HTU21D;62209;47.568;7.558;2023-06-14T12:39:34;30.77;40.11
73875;HTU21D;62209;47.568;7.558;2023-06-14T12:54:42;30.74;40.66
73875;HTU21D;62209;47.568;7.558;2023-06-14T13:09:48;30.69;40.08
73875;HTU21D;62209;47.568;7.558;2023-06-14T13:24:54;30.82;38.33
73875;HTU21D;62209;47.568;7.558;2023-06-14T13:39:59;31.05;38.91
73875;HTU21D;62209;47.568;7.558;2023-06-14T13:55:05;30.22;40.65
73875;HTU21D;62209;47.568;7.558;2023-06-14T14:10:13;30.27;40.67
73875;HTU21D;62209;47.568;7.558;2023-06-14T14:25:19;30.33;41.36
73875;HTU21D;62209;47.568;7.558;2023-06-14T14:40:25;30.12;40.73
73875;HTU21D;62209;47.568;7.558;2023-06-14T14:55:31;29.71;41.79
73875;HTU21D;62209;47.568;7.558;2023-06-14T15:10:38;29.63;43.47
73875;HTU21D;62209;47.568;7.558;2023-06-14T15:25:45;28.89;42.36
73875;HTU21D;62209;47.568;7.558;2023-06-14T15:40:51;28.61;43.96
73875;HTU21D;62209;47.568;7.558;2023-06-14T15:55:58;28.24;43.46
73875;HTU21D;62209;47.568;7.558;2023-06-14T16:11:03;27.87;44.11
73875;HTU21D;62209;47.568;7.558;2023-06-14T16:26:10;27.84;43.96
73875;HTU21D;62209;47.568;7.558;2023-06-14T16:41:16;27.43;45.45
73875;HTU21D;62209;47.568;7.558;2023-06-14T16:56:22;27.15;46.10
73875;HTU21D;62209;47.568;7.558;2023-06-14T17:11:30;26.65;46.31
73875;HTU21D;62209;47.568;7.558;2023-06-14T17:26:36;26.26;46.89
73875;HTU21D;62209;47.568;7.558;2023-06-14T17:41:42;26.06;47.73
73875;HTU21D;62209;47.568;7.558;2023-06-14T17:56:48;25.48;47.75
73875;HTU21D;62209;47.568;7.558;2023-06-14T18:11:53;25.06;48.31
73875;HTU21D;62209;47.568;7.558;2023-06-14T18:26:59;24.88;50.18
73875;HTU21D;62209;47.568;7.558;2023-06-14T18:42:07;24.41;51.43
73875;HTU21D;62209;47.568;7.558;2023-06-14T18:57:14;24.05;52.49
73875;HTU21D;62209;47.568;7.558;2023-06-14T19:12:20;23.73;52.59
73875;HTU21D;62209;47.568;7.558;2023-06-14T19:27:25;23.41;52.65
73875;HTU21D;62209;47.568;7.558;2023-06-14T19:42:31;23.10;53.75
73875;HTU21D;62209;47.568;7.558;2023-06-14T19:57:36;22.87;54.83
73875;HTU21D;62209;47.568;7.558;2023-06-14T20:12:42;22.63;55.25
73875;HTU21D;62209;47.568;7.558;2023-06-14T20:27:47;22.40;55.79
73875;HTU21D;62209;47.568;7.558;2023-06-14T20:42:53;22.18;56.56
73875;HTU21D;62209;47.568;7.558;2023-06-14T20:58:00;21.90;57.21
73875;HTU21D;62209;47.568;7.558;2023-06-14T21:13:06;21.61;57.36
73875;HTU21D;62209;47.568;7.558;2023-06-14T21:28:12;21.24;59.09
73875;HTU21D;62209;47.568;7.558;2023-06-14T21:43:17;20.51;63.77
73875;HTU21D;62209;47.568;7.558;2023-06-14T21:58:23;19.81;66.51
73875;HTU21D;62209;47.568;7.558;2023-06-14T22:13:28;19.33;67.97
73875;HTU21D;62209;47.568;7.558;2023-06-14T22:28:35;18.96;68.64
73875;HTU21D;62209;47.568;7.558;2023-06-14T22:43:46;18.59;71.03
73875;HTU21D;62209;47.568;7.558;2023-06-14T22:58:52;18.27;71.65
73875;HTU21D;62209;47.568;7.558;2023-06-14T23:13:58;17.75;72.79
73875;HTU21D;62209;47.568;7.558;2023-06-14T23:29:04;17.49;74.64
73875;HTU21D;62209;47.568;7.558;2023-06-14T23:44:09;17.16;74.72
73875;HTU21D;62209;47.568;7.558;2023-06-14T23:59:15;16.81;76.37
